Time;durP1;ratioP1;P1;durP2;ratioP2;P2;SDS_P1;SDS_P2;PMS_P1;PMS_P2;Temp;Humidity;BMP_temperature;BMP_pressure;BME280_temperature;BME280_humidity;BME280_pressure;Samples;Min_cycle;Max_cycle;Signal;HPM_P1;HPM_P2
2022/10/12 00:02:00;;;;;;;6.73;4.07;;;5.00;97.90;;;;;;5056137;28;20043;-68
2022/10/12 00:04:26;;;;;;;8.20;3.57;;;5.00;98.10;;;;;;5043676;28;20040;-69
2022/10/12 00:06:51;;;;;;;17.43;4.63;;;5.00;98.20;;;;;;5025924;28;20043;-68
2022/10/12 00:09:17;;;;;;;6.67;3.50;;;5.10;98.20;;;;;;5048061;28;20033;-68
2022/10/12 00:11:43;;;;;;;9.67;5.07;;;5.10;98.20;;;;;;5034456;28;20048;-68
2022/10/12 00:14:09;;;;;;;5.97;3.00;;;5.10;98.20;;;;;;5050349;28;20084;-68
2022/10/12 00:16:35;;;;;;;5.17;2.70;;;5.20;98.20;;;;;;5031574;28;20043;-68
2022/10/12 00:19:01;;;;;;;5.20;2.45;;;5.20;98.50;;;;;;5049801;28;20102;-68
2022/10/12 00:21:28;;;;;;;4.17;2.23;;;5.20;98.50;;;;;;5050600;28;20048;-68
2022/10/12 00:23:59;;;;;;;4.10;2.53;;;5.20;98.50;;;;;;5047764;28;20048;-68
2022/10/12 00:26:25;;;;;;;4.15;2.42;;;5.10;98.40;;;;;;5048254;28;20040;-68
2022/10/12 00:29:00;;;;;;;7.20;2.95;;;5.10;98.50;;;;;;5043466;28;20076;-68
2022/10/12 00:31:27;;;;;;;5.45;2.80;;;5.10;98.60;;;;;;5034143;28;20028;-68
2022/10/12 00:33:53;;;;;;;7.00;2.80;;;5.10;98.60;;;;;;5045045;28;20093;-68
2022/10/12 00:36:22;;;;;;;6.18;2.72;;;5.10;98.50;;;;;;5056252;28;20046;-68
2022/10/12 00:38:49;;;;;;;7.32;2.90;;;5.00;98.60;;;;;;5060420;28;20080;-68
2022/10/12 00:41:16;;;;;;;3.75;2.30;;;5.00;98.70;;;;;;5035174;28;20044;-68
2022/10/12 00:43:43;;;;;;;5.03;2.67;;;5.00;98.80;;;;;;5041665;28;20032;-68
2022/10/12 00:46:34;;;;;;;6.32;2.40;;;5.00;98.70;;;;;;5038122;28;20131;-68
2022/10/12 00:49:19;;;;;;;7.03;2.35;;;5.00;98.90;;;;;;5052962;28;20040;-69
2022/10/12 00:51:50;;;;;;;5.85;2.40;;;5.00;99.00;;;;;;5047260;28;20052;-68
2022/10/12 00:54:19;;;;;;;3.33;2.00;;;5.00;99.30;;;;;;5044700;28;20359;-68
2022/10/12 00:56:47;;;;;;;4.97;2.60;;;5.00;99.40;;;;;;5054573;28;20047;-69
2022/10/12 00:59:20;;;;;;;5.25;2.20;;;5.00;99.20;;;;;;5038658;28;20162;-68
2022/10/12 01:01:46;;;;;;;4.68;2.15;;;5.00;99.10;;;;;;5066226;28;20074;-68
2022/10/12 01:04:12;;;;;;;2.97;2.10;;;5.00;99.20;;;;;;5057557;28;20077;-68
2022/10/12 01:06:37;;;;;;;3.70;2.03;;;5.00;99.20;;;;;;5042740;28;20036;-68
2022/10/12 01:09:03;;;;;;;3.53;1.93;;;5.10;99.30;;;;;;5056540;28;20376;-68
2022/10/12 01:11:29;;;;;;;4.43;2.47;;;5.10;99.30;;;;;;5044312;28;20458;-68
2022/10/12 01:13:55;;;;;;;3.47;2.13;;;5.10;99.40;;;;;;5069939;28;20495;-68
2022/10/12 01:16:39;;;;;;;2.80;1.90;;;5.10;99.40;;;;;;5016927;28;20040;-68
2022/10/12 01:19:55;;;;;;;5.07;2.28;;;5.20;99.70;;;;;;5041461;28;20043;-68
2022/10/12 01:22:21;;;;;;;2.85;2.10;;;5.20;99.80;;;;;;4988810;28;20054;-68
2022/10/12 01:25:10;;;;;;;4.10;1.83;;;5.30;99.80;;;;;;5040577;28;20051;-68
2022/10/12 01:27:50;;;;;;;4.75;2.17;;;5.30;99.90;;;;;;5038551;28;20090;-69
2022/10/12 01:30:21;;;;;;;4.20;1.85;;;5.30;99.90;;;;;;5059917;28;20555;-68
2022/10/12 01:33:09;;;;;;;2.72;1.90;;;5.40;99.90;;;;;;5055291;28;20669;-68
2022/10/12 01:36:20;;;;;;;3.75;1.80;;;5.40;99.90;;;;;;5054703;28;20055;-68
2022/10/12 01:39:03;;;;;;;3.83;2.08;;;5.50;99.90;;;;;;5069393;28;20558;-68
2022/10/12 01:42:01;;;;;;;2.75;1.92;;;5.50;99.90;;;;;;5069707;28;20055;-68
2022/10/12 01:44:29;;;;;;;3.20;2.05;;;5.50;99.90;;;;;;5069542;28;20044;-70
2022/10/12 01:46:55;;;;;;;4.65;1.90;;;5.50;99.90;;;;;;5052568;28;20044;-69
2022/10/12 01:49:27;;;;;;;4.07;1.73;;;5.50;99.90;;;;;;5069369;28;20068;-68
2022/10/12 01:52:08;;;;;;;1.83;1.48;;;5.50;99.90;;;;;;5060730;28;20051;-69
2022/10/12 01:54:41;;;;;;;2.33;1.63;;;5.50;99.80;;;;;;5067064;28;20266;-69
2022/10/12 01:57:25;;;;;;;3.40;1.80;;;5.50;99.90;;;;;;5069387;28;20040;-69
2022/10/12 02:00:06;;;;;;;2.65;1.92;;;5.50;99.90;;;;;;5062473;28;20078;-69
2022/10/12 02:03:09;;;;;;;4.38;1.65;;;5.50;99.90;;;;;;5067430;28;20067;-69
2022/10/12 02:05:47;;;;;;;4.18;1.98;;;5.40;99.90;;;;;;5065097;28;20036;-69
2022/10/12 02:08:30;;;;;;;3.50;1.83;;;5.40;99.90;;;;;;5049180;28;20040;-69
2022/10/12 02:11:06;;;;;;;3.80;2.00;;;5.40;99.90;;;;;;5046926;28;20040;-68
2022/10/12 02:13:37;;;;;;;4.25;2.20;;;5.40;99.90;;;;;;5054305;28;20373;-68
2022/10/12 02:16:14;;;;;;;3.95;2.17;;;5.40;99.80;;;;;;5043611;28;20138;-68
2022/10/12 02:18:44;;;;;;;4.05;1.92;;;5.40;99.90;;;;;;5035617;28;20132;-69
2022/10/12 02:21:14;;;;;;;3.88;2.15;;;5.40;99.90;;;;;;5069280;28;20500;-68
2022/10/12 02:23:41;;;;;;;5.70;2.28;;;5.40;99.90;;;;;;5068776;28;20059;-69
2022/10/12 02:26:08;;;;;;;5.93;2.00;;;5.40;99.90;;;;;;5032931;28;20040;-68
2022/10/12 02:28:36;;;;;;;4.35;2.28;;;5.30;99.90;;;;;;5045747;28;20052;-68
2022/10/12 02:31:16;;;;;;;4.03;2.17;;;5.40;99.90;;;;;;5038223;28;20137;-69
2022/10/12 02:33:51;;;;;;;3.50;1.70;;;5.30;99.90;;;;;;5063171;28;20138;-68
2022/10/12 02:36:28;;;;;;;4.53;2.17;;;5.40;99.90;;;;;;5057205;28;20049;-68
2022/10/12 02:39:18;;;;;;;4.82;2.50;;;5.40;99.90;;;;;;5047053;28;20080;-69
2022/10/12 02:41:48;;;;;;;4.13;2.30;;;5.40;99.90;;;;;;5050429;28;21938;-69
2022/10/12 02:44:18;;;;;;;3.35;1.80;;;5.40;99.90;;;;;;5049367;28;20399;-69
2022/10/12 02:46:46;;;;;;;3.63;2.50;;;5.40;99.90;;;;;;5054444;28;20040;-68
2022/10/12 02:49:13;;;;;;;6.60;2.20;;;5.40;99.90;;;;;;5049173;28;20128;-68
2022/10/12 02:51:41;;;;;;;4.10;2.20;;;5.40;99.90;;;;;;5052909;28;20518;-69
2022/10/12 02:54:07;;;;;;;5.22;2.28;;;5.40;99.90;;;;;;5061995;28;20040;-69
2022/10/12 02:56:32;;;;;;;7.38;2.28;;;5.40;99.90;;;;;;5060672;28;20041;-69
2022/10/12 02:58:58;;;;;;;5.27;2.13;;;5.40;99.90;;;;;;5042925;28;20045;-69
2022/10/12 03:01:24;;;;;;;3.93;2.50;;;5.40;99.90;;;;;;5053285;28;20033;-69
2022/10/12 03:03:49;;;;;;;5.30;2.50;;;5.40;99.90;;;;;;5033421;28;20048;-69
2022/10/12 03:06:15;;;;;;;6.57;2.80;;;5.40;99.90;;;;;;5045815;28;20068;-69
2022/10/12 03:08:41;;;;;;;5.20;2.47;;;5.40;99.90;;;;;;5053683;28;20661;-68
2022/10/12 03:11:10;;;;;;;6.80;3.13;;;5.40;99.90;;;;;;5041447;28;20528;-69
2022/10/12 03:13:36;;;;;;;7.90;2.63;;;5.40;99.90;;;;;;5058646;28;20037;-69
2022/10/12 03:16:08;;;;;;;5.40;2.90;;;5.40;99.90;;;;;;5051424;28;20412;-69
2022/10/12 03:18:34;;;;;;;7.13;2.88;;;5.40;99.90;;;;;;5049167;28;20053;-69
2022/10/12 03:21:00;;;;;;;6.17;2.80;;;5.40;99.90;;;;;;5035991;28;20075;-69
2022/10/12 03:23:26;;;;;;;7.38;3.28;;;5.40;99.90;;;;;;5060397;28;20298;-69
2022/10/12 03:25:52;;;;;;;4.10;3.08;;;5.40;99.90;;;;;;5020740;28;20047;-69
2022/10/12 03:28:18;;;;;;;6.07;3.20;;;5.40;99.90;;;;;;5041322;28;20041;-69
2022/10/12 03:30:44;;;;;;;8.23;3.83;;;5.40;99.90;;;;;;5037342;28;20040;-68
2022/10/12 03:33:10;;;;;;;5.37;3.33;;;5.40;99.90;;;;;;5058834;28;20054;-68
2022/10/12 03:35:35;;;;;;;7.80;4.47;;;5.40;99.90;;;;;;5052727;28;20040;-69
2022/10/12 03:38:01;;;;;;;10.70;4.00;;;5.50;99.90;;;;;;5028179;28;20048;-69
2022/10/12 03:40:27;;;;;;;10.23;4.77;;;5.50;99.90;;;;;;5054173;28;20106;-68
2022/10/12 03:42:52;;;;;;;12.53;4.57;;;5.50;99.90;;;;;;5059377;28;20040;-68
2022/10/12 03:45:18;;;;;;;9.10;4.50;;;5.50;99.90;;;;;;5049139;28;20040;-68
2022/10/12 03:47:44;;;;;;;8.77;4.40;;;5.50;99.90;;;;;;5040448;28;20047;-69
2022/10/12 03:50:09;;;;;;;7.67;4.13;;;5.60;99.90;;;;;;5046223;28;20052;-68
2022/10/12 03:52:35;;;;;;;8.63;4.47;;;5.60;99.90;;;;;;5045211;28;20047;-68
2022/10/12 03:55:01;;;;;;;8.80;4.57;;;5.60;99.90;;;;;;5043008;28;20040;-69
2022/10/12 03:57:27;;;;;;;10.50;4.20;;;5.60;99.90;;;;;;5061133;28;20171;-69
2022/10/12 03:59:52;;;;;;;10.23;3.90;;;5.60;99.90;;;;;;5061917;28;20040;-68
2022/10/12 04:02:18;;;;;;;8.47;4.00;;;5.60;99.90;;;;;;5042064;28;20077;-68
2022/10/12 04:04:43;;;;;;;10.77;4.57;;;5.60;99.90;;;;;;5057829;28;20101;-68
2022/10/12 04:07:09;;;;;;;8.17;4.10;;;5.60;99.90;;;;;;5060401;28;20135;-69
2022/10/12 04:09:35;;;;;;;12.90;4.60;;;5.60;99.90;;;;;;5024796;28;20044;-68
2022/10/12 04:12:01;;;;;;;8.67;3.77;;;5.60;99.90;;;;;;5066811;28;20399;-68
2022/10/12 04:14:26;;;;;;;12.37;4.40;;;5.60;99.90;;;;;;5044214;28;20055;-69
2022/10/12 04:16:53;;;;;;;9.57;4.20;;;5.60;99.90;;;;;;5021735;28;20070;-69
2022/10/12 04:19:19;;;;;;;10.80;4.50;;;5.70;99.90;;;;;;5051183;28;20050;-69
2022/10/12 04:21:45;;;;;;;7.68;4.13;;;5.70;99.90;;;;;;5033778;28;20482;-69
2022/10/12 04:24:11;;;;;;;7.60;3.93;;;5.70;99.90;;;;;;5044011;28;20049;-69
2022/10/12 04:26:36;;;;;;;12.47;4.13;;;5.70;99.90;;;;;;5034167;28;20087;-69
2022/10/12 04:29:02;;;;;;;8.80;4.73;;;5.70;99.90;;;;;;5047713;28;20044;-68
2022/10/12 04:31:29;;;;;;;8.30;4.60;;;5.70;99.90;;;;;;5037349;28;20063;-68
2022/10/12 04:33:56;;;;;;;8.40;3.90;;;5.70;99.90;;;;;;5046788;28;20049;-69
2022/10/12 04:36:25;;;;;;;6.22;4.10;;;5.60;99.90;;;;;;5062279;28;20082;-69
2022/10/12 04:38:52;;;;;;;7.43;4.10;;;5.60;99.90;;;;;;5017943;28;20130;-68
2022/10/12 04:41:18;;;;;;;10.23;4.63;;;5.60;99.90;;;;;;5061972;28;20043;-69
2022/10/12 04:43:44;;;;;;;11.15;5.13;;;5.60;99.90;;;;;;5046691;28;20123;-69
2022/10/12 04:46:10;;;;;;;10.90;4.43;;;5.60;99.90;;;;;;5051870;28;20124;-69
2022/10/12 04:48:36;;;;;;;8.25;4.20;;;5.60;99.90;;;;;;5051397;28;20032;-69
2022/10/12 04:51:01;;;;;;;8.63;4.27;;;5.60;99.90;;;;;;5047947;28;20466;-69
2022/10/12 04:53:28;;;;;;;7.77;4.40;;;5.60;99.90;;;;;;5069783;28;20516;-69
2022/10/12 04:55:53;;;;;;;10.10;4.50;;;5.50;99.90;;;;;;5043782;28;20082;-68
2022/10/12 04:58:19;;;;;;;11.37;4.50;;;5.50;99.90;;;;;;5056722;28;20493;-69
2022/10/12 05:00:47;;;;;;;9.23;4.27;;;5.50;99.90;;;;;;5045055;28;20031;-69
2022/10/12 05:03:13;;;;;;;9.57;4.05;;;5.50;99.90;;;;;;5050837;28;20052;-69
2022/10/12 05:05:38;;;;;;;9.67;4.70;;;5.50;99.90;;;;;;5045330;28;20040;-69
2022/10/12 05:08:05;;;;;;;12.10;5.50;;;5.40;99.90;;;;;;5057406;28;20553;-69
2022/10/12 05:10:31;;;;;;;9.27;5.13;;;5.40;99.90;;;;;;5056798;28;20039;-69
2022/10/12 05:12:57;;;;;;;9.25;4.32;;;5.40;99.90;;;;;;5055158;28;20044;-69
2022/10/12 05:15:23;;;;;;;9.00;4.53;;;5.40;99.90;;;;;;5062692;28;20055;-69
2022/10/12 05:17:48;;;;;;;12.38;4.90;;;5.30;99.90;;;;;;5058924;28;20075;-69
2022/10/12 05:20:14;;;;;;;12.10;5.33;;;5.30;99.90;;;;;;5061794;28;20156;-68
2022/10/12 05:22:40;;;;;;;9.50;4.53;;;5.30;99.90;;;;;;5051454;28;20056;-68
2022/10/12 05:25:06;;;;;;;13.03;5.67;;;5.30;99.90;;;;;;5048593;28;20039;-69
2022/10/12 05:27:32;;;;;;;8.13;4.55;;;5.20;99.90;;;;;;5047327;28;20181;-69
2022/10/12 05:29:58;;;;;;;9.37;4.40;;;5.20;99.90;;;;;;5042147;28;20124;-68
2022/10/12 05:32:23;;;;;;;10.10;4.60;;;5.10;99.90;;;;;;5044338;28;20048;-68
2022/10/12 05:34:49;;;;;;;10.70;5.50;;;5.10;99.90;;;;;;5045787;28;20123;-68
2022/10/12 05:37:15;;;;;;;16.70;5.20;;;5.00;99.90;;;;;;5058837;28;20062;-68
2022/10/12 05:39:41;;;;;;;10.73;5.63;;;5.00;99.90;;;;;;5057827;28;20096;-68
2022/10/12 05:42:06;;;;;;;10.80;5.00;;;5.00;99.90;;;;;;5045707;28;20530;-69
2022/10/12 05:44:32;;;;;;;9.53;5.00;;;4.90;99.90;;;;;;5041859;28;20252;-69
2022/10/12 05:46:58;;;;;;;13.10;5.27;;;4.90;99.90;;;;;;5068180;28;20461;-69
2022/10/12 05:49:24;;;;;;;8.53;4.97;;;4.90;99.90;;;;;;5051790;28;20071;-69
2022/10/12 05:51:50;;;;;;;10.33;4.70;;;4.90;99.90;;;;;;5069381;28;20040;-69
2022/10/12 05:54:15;;;;;;;8.83;5.90;;;4.90;99.90;;;;;;5055853;28;20040;-69
2022/10/12 05:56:41;;;;;;;12.93;5.40;;;4.90;99.90;;;;;;5031891;28;20036;-69
2022/10/12 05:59:07;;;;;;;12.10;5.80;;;4.90;99.90;;;;;;5034609;28;20058;-69
2022/10/12 06:01:33;;;;;;;11.77;6.20;;;4.90;99.90;;;;;;5050611;28;20036;-69
2022/10/12 06:03:58;;;;;;;14.50;6.40;;;4.80;99.90;;;;;;5036796;28;20044;-69
2022/10/12 06:06:24;;;;;;;12.37;5.87;;;4.80;99.90;;;;;;5046421;28;20044;-68
2022/10/12 06:08:50;;;;;;;12.70;5.50;;;4.80;99.90;;;;;;5051942;28;20478;-69
2022/10/12 06:11:15;;;;;;;13.50;6.47;;;4.80;99.90;;;;;;5032106;28;20648;-69
2022/10/12 06:13:41;;;;;;;13.53;5.47;;;4.80;99.90;;;;;;5049373;28;20046;-68
2022/10/12 06:16:07;;;;;;;10.07;5.53;;;4.80;99.90;;;;;;5020936;28;20488;-69
2022/10/12 06:18:33;;;;;;;14.83;5.40;;;4.70;99.90;;;;;;5066449;28;20086;-68
2022/10/12 06:20:58;;;;;;;12.53;5.43;;;4.70;99.90;;;;;;5048774;28;20051;-68
2022/10/12 06:23:24;;;;;;;12.13;5.47;;;4.70;99.90;;;;;;5036500;28;20129;-69
2022/10/12 06:25:51;;;;;;;10.17;5.70;;;4.70;99.90;;;;;;5041041;28;20060;-69
2022/10/12 06:28:21;;;;;;;15.05;5.68;;;4.80;99.90;;;;;;5032886;28;20040;-69
2022/10/12 06:30:54;;;;;;;12.75;6.38;;;4.80;99.90;;;;;;5067514;28;20128;-68
2022/10/12 06:33:20;;;;;;;13.20;6.63;;;4.90;99.90;;;;;;5062407;28;20044;-69
2022/10/12 06:35:47;;;;;;;16.80;7.10;;;4.90;99.90;;;;;;5031712;28;20397;-69
2022/10/12 06:38:12;;;;;;;19.63;9.00;;;5.00;99.90;;;;;;5048056;28;20056;-68
2022/10/12 06:40:38;;;;;;;21.83;9.37;;;5.00;99.90;;;;;;5060229;28;20070;-69
2022/10/12 06:43:04;;;;;;;19.40;8.60;;;5.10;99.90;;;;;;5065558;28;20079;-68
2022/10/12 06:45:30;;;;;;;17.40;8.83;;;5.10;99.90;;;;;;5034426;28;20454;-68
2022/10/12 06:47:56;;;;;;;14.47;8.87;;;5.20;99.90;;;;;;5065566;28;20036;-69
2022/10/12 06:50:21;;;;;;;19.13;8.05;;;5.30;99.90;;;;;;5058449;28;20036;-69
2022/10/12 06:52:47;;;;;;;15.13;8.57;;;5.30;99.90;;;;;;5025308;28;20048;-68
2022/10/12 06:55:13;;;;;;;18.73;8.40;;;5.40;99.90;;;;;;5062459;28;20043;-69
2022/10/12 06:57:39;;;;;;;17.03;8.73;;;5.50;99.90;;;;;;5053589;28;20114;-68
2022/10/12 07:00:06;;;;;;;17.67;9.33;;;5.50;99.90;;;;;;5026809;28;20535;-69
2022/10/12 07:02:33;;;;;;;15.23;8.18;;;5.60;99.90;;;;;;5058396;28;20128;-69
2022/10/12 07:05:00;;;;;;;15.45;7.78;;;5.70;99.90;;;;;;5047630;28;20525;-69
2022/10/12 07:07:29;;;;;;;17.35;7.68;;;5.70;99.90;;;;;;5057241;28;20052;-69
2022/10/12 07:09:54;;;;;;;13.68;7.60;;;5.70;99.90;;;;;;5052668;28;20028;-70
2022/10/12 07:12:20;;;;;;;15.33;7.33;;;5.70;99.90;;;;;;5062521;28;20527;-71
2022/10/12 07:14:46;;;;;;;13.70;7.10;;;5.70;99.90;;;;;;5023654;28;20549;-70
2022/10/12 07:17:12;;;;;;;13.73;6.90;;;5.70;99.90;;;;;;5016820;28;20044;-70
2022/10/12 07:19:37;;;;;;;12.65;6.40;;;5.70;99.90;;;;;;5036513;28;20466;-70
2022/10/12 07:22:03;;;;;;;17.37;7.00;;;5.80;99.90;;;;;;5032401;28;20049;-70
2022/10/12 07:24:35;;;;;;;14.27;7.83;;;5.80;99.90;;;;;;5037040;28;20076;-70
2022/10/12 07:27:06;;;;;;;16.13;7.95;;;5.90;99.90;;;;;;5029651;28;20125;-71
2022/10/12 07:29:33;;;;;;;16.85;9.18;;;6.00;99.90;;;;;;5042430;28;20049;-70
2022/10/12 07:31:59;;;;;;;15.82;8.10;;;6.10;99.90;;;;;;5040314;28;20036;-71
2022/10/12 07:34:34;;;;;;;16.13;8.65;;;6.30;99.90;;;;;;5061784;28;20345;-70
2022/10/12 07:37:03;;;;;;;15.70;8.00;;;6.50;99.90;;;;;;5057251;28;20075;-70
2022/10/12 07:39:30;;;;;;;17.13;9.33;;;6.70;99.90;;;;;;5036909;28;20131;-71
2022/10/12 07:41:56;;;;;;;19.75;9.23;;;7.00;99.90;;;;;;5046998;28;20057;-70
2022/10/12 07:44:23;;;;;;;16.27;8.67;;;7.20;99.90;;;;;;5040637;28;20041;-70
2022/10/12 07:46:49;;;;;;;11.68;7.18;;;7.50;99.90;;;;;;5058742;28;20047;-70
2022/10/12 07:49:15;;;;;;;18.33;7.40;;;7.70;99.90;;;;;;5045510;28;20447;-71
2022/10/12 07:51:41;;;;;;;14.40;7.55;;;7.80;99.90;;;;;;5059572;28;20584;-70
2022/10/12 07:54:08;;;;;;;15.10;7.70;;;8.00;99.90;;;;;;5059038;28;20052;-70
2022/10/12 07:56:34;;;;;;;15.55;7.75;;;8.10;99.90;;;;;;5055691;28;20120;-70
2022/10/12 07:59:00;;;;;;;15.43;7.25;;;8.20;99.90;;;;;;5047503;28;20492;-71
2022/10/12 08:01:31;;;;;;;13.90;6.87;;;8.40;99.90;;;;;;5053848;28;20054;-70
2022/10/12 08:03:58;;;;;;;15.52;6.82;;;8.50;99.90;;;;;;5060428;28;20040;-71
2022/10/12 08:06:26;;;;;;;15.65;6.97;;;8.60;99.90;;;;;;5028024;28;20041;-71
2022/10/12 08:08:53;;;;;;;14.10;6.45;;;8.70;99.90;;;;;;5048275;28;20048;-70
2022/10/12 08:11:30;;;;;;;17.30;5.97;;;8.80;99.90;;;;;;5039388;28;20029;-71
2022/10/12 08:14:02;;;;;;;12.50;5.55;;;8.90;99.90;;;;;;5059427;28;20047;-70
2022/10/12 08:16:28;;;;;;;19.90;5.50;;;9.00;99.90;;;;;;5045359;28;20049;-71
2022/10/12 08:19:00;;;;;;;11.32;4.97;;;9.10;99.90;;;;;;5054672;28;20045;-71
2022/10/12 08:21:28;;;;;;;15.75;5.30;;;9.20;99.90;;;;;;5039126;28;20094;-72
2022/10/12 08:23:54;;;;;;;13.02;4.90;;;9.30;99.90;;;;;;5028304;28;20063;-70
2022/10/12 08:26:19;;;;;;;13.27;5.23;;;9.40;99.90;;;;;;5044215;28;20112;-70
2022/10/12 08:28:45;;;;;;;13.07;5.13;;;9.50;99.90;;;;;;5035578;28;20044;-71
2022/10/12 08:31:13;;;;;;;17.13;4.60;;;9.60;99.50;;;;;;5007481;28;20076;-71
2022/10/12 08:33:39;;;;;;;12.80;4.47;;;9.60;98.80;;;;;;5040605;28;20044;-71
2022/10/12 08:36:06;;;;;;;10.37;4.37;;;9.60;98.50;;;;;;5031352;28;20040;-71
2022/10/12 08:38:33;;;;;;;12.77;4.78;;;9.70;98.40;;;;;;5018428;28;20056;-70
2022/10/12 08:41:41;;;;;;;13.82;4.90;;;9.80;98.30;;;;;;5022518;28;20045;-70
2022/10/12 08:44:26;;;;;;;10.60;4.35;;;10.00;97.80;;;;;;5017796;28;20057;-70
2022/10/12 08:47:23;;;;;;;14.35;5.30;;;10.00;97.00;;;;;;5035694;28;20048;-70
2022/10/12 08:49:50;;;;;;;14.57;4.53;;;10.20;96.30;;;;;;5035997;28;20091;-71
2022/10/12 08:52:33;;;;;;;13.38;5.07;;;10.30;95.90;;;;;;5041380;28;20041;-70
2022/10/12 08:55:14;;;;;;;10.80;5.22;;;10.40;95.70;;;;;;5044067;28;20052;-71
2022/10/12 08:57:40;;;;;;;13.57;4.68;;;10.50;94.90;;;;;;5043767;28;20040;-71
2022/10/12 09:00:13;;;;;;;12.20;4.30;;;10.60;94.60;;;;;;5042332;28;20435;-71
2022/10/12 09:02:52;;;;;;;10.38;3.50;;;10.70;93.50;;;;;;5024032;28;20424;-70
2022/10/12 09:05:36;;;;;;;8.80;3.45;;;10.80;92.80;;;;;;5044052;28;20041;-71
2022/10/12 09:08:31;;;;;;;7.72;3.35;;;10.90;91.40;;;;;;5043675;28;20064;-71
2022/10/12 09:11:09;;;;;;;9.45;3.28;;;11.00;91.70;;;;;;5035212;28;20131;-70
2022/10/12 09:14:02;;;;;;;12.13;3.83;;;11.10;91.50;;;;;;5037577;28;20512;-71
2022/10/12 09:16:31;;;;;;;12.13;3.77;;;11.20;90.70;;;;;;5027019;28;20057;-70
2022/10/12 09:19:07;;;;;;;6.90;3.10;;;11.30;90.60;;;;;;5021096;28;20312;-71
2022/10/12 09:21:34;;;;;;;11.70;2.77;;;11.50;90.30;;;;;;5042607;28;20272;-70
2022/10/12 09:24:02;;;;;;;11.00;3.00;;;11.60;89.70;;;;;;5057272;28;20306;-69
2022/10/12 09:26:36;;;;;;;9.73;3.77;;;11.70;88.80;;;;;;5060671;28;20290;-71
2022/10/12 09:29:18;;;;;;;11.95;3.15;;;11.80;88.60;;;;;;5062746;28;20275;-71
2022/10/12 09:31:58;;;;;;;13.20;3.33;;;11.90;87.90;;;;;;5072628;28;20475;-70
2022/10/12 09:34:23;;;;;;;8.77;3.20;;;12.00;87.00;;;;;;5059711;28;20306;-70
2022/10/12 09:36:49;;;;;;;8.23;2.90;;;12.10;85.60;;;;;;5047766;28;20898;-71
2022/10/12 09:39:22;;;;;;;15.93;3.40;;;12.10;86.40;;;;;;5053812;28;20597;-70
2022/10/12 09:41:48;;;;;;;9.50;2.80;;;12.20;85.70;;;;;;5059249;28;20723;-71
2022/10/12 09:44:31;;;;;;;11.40;2.93;;;12.30;85.10;;;;;;5087561;28;20281;-70
2022/10/12 09:47:06;;;;;;;12.10;3.00;;;12.40;84.40;;;;;;5055871;28;20048;-71
2022/10/12 09:49:44;;;;;;;9.32;2.33;;;12.50;83.80;;;;;;5056796;28;20665;-72
2022/10/12 09:52:12;;;;;;;16.50;4.20;;;12.50;84.10;;;;;;5068771;28;20185;-69
2022/10/12 09:54:52;;;;;;;11.53;2.80;;;12.60;83.70;;;;;;5043569;28;20324;-71
2022/10/12 09:57:21;;;;;;;11.73;2.63;;;12.80;82.80;;;;;;5061869;28;20281;-71
2022/10/12 09:59:47;;;;;;;9.40;2.57;;;12.80;82.10;;;;;;5058804;28;20321;-71
2022/10/12 10:02:26;;;;;;;14.13;2.60;;;12.90;80.30;;;;;;5065059;28;20306;-71
2022/10/12 10:04:53;;;;;;;12.63;2.50;;;13.00;80.10;;;;;;5044788;28;20313;-70
2022/10/12 10:07:26;;;;;;;13.57;2.73;;;13.00;80.00;;;;;;5057004;28;20278;-71
2022/10/12 10:10:11;;;;;;;10.83;2.53;;;13.10;80.60;;;;;;5040684;28;20282;-70
2022/10/12 10:12:48;;;;;;;13.57;2.20;;;13.20;80.20;;;;;;5063952;28;20293;-70
2022/10/12 10:15:21;;;;;;;11.57;3.10;;;13.30;79.70;;;;;;5063931;28;20610;-70
2022/10/12 10:17:52;;;;;;;10.43;3.43;;;13.40;79.00;;;;;;5064825;28;20822;-72
2022/10/12 10:20:48;;;;;;;10.23;3.37;;;13.40;79.20;;;;;;5060495;28;20331;-71
2022/10/12 10:23:23;;;;;;;;;;;13.50;78.90;;;;;;5066228;28;20325;-71
2022/10/12 10:26:04;;;;;;;10.87;3.10;;;13.60;77.80;;;;;;5066455;28;19915;-71
2022/10/12 10:28:35;;;;;;;10.43;2.80;;;13.70;78.40;;;;;;5049951;28;20287;-70
2022/10/12 10:31:15;;;;;;;13.73;3.13;;;13.80;77.90;;;;;;5041036;28;20302;-71
2022/10/12 10:34:16;;;;;;;8.87;2.63;;;13.90;78.10;;;;;;5076344;28;20324;-70
2022/10/12 10:37:00;;;;;;;13.03;2.63;;;14.00;76.50;;;;;;5053603;28;20482;-71
2022/10/12 10:39:51;;;;;;;10.88;2.15;;;14.00;76.40;;;;;;5085153;28;20405;-71
2022/10/12 10:42:36;;;;;;;9.63;2.50;;;14.10;76.40;;;;;;5074922;28;20047;-71
2022/10/12 10:45:24;;;;;;;9.03;2.40;;;14.10;74.60;;;;;;5055878;28;20293;-70
2022/10/12 10:48:12;;;;;;;12.40;2.20;;;14.20;75.60;;;;;;5083981;28;20307;-71
2022/10/12 10:50:41;;;;;;;12.23;2.17;;;14.30;74.50;;;;;;5068843;28;20278;-71
2022/10/12 10:53:25;;;;;;;11.60;2.00;;;14.30;74.90;;;;;;5061881;28;20343;-71
2022/10/12 10:56:03;;;;;;;8.67;2.13;;;14.40;74.60;;;;;;5063413;28;20275;-71
2022/10/12 10:58:33;;;;;;;10.87;2.20;;;14.50;74.40;;;;;;5047662;28;20286;-71
2022/10/12 11:01:04;;;;;;;9.20;2.10;;;14.60;74.00;;;;;;5032900;28;20295;-71
2022/10/12 11:03:40;;;;;;;10.40;3.17;;;14.60;73.10;;;;;;5048828;28;20381;-70
2022/10/12 11:06:29;;;;;;;7.97;2.20;;;14.60;73.00;;;;;;5073360;28;20265;-70
2022/10/12 11:09:02;;;;;;;9.25;1.77;;;14.70;72.50;;;;;;5042538;28;20289;-71
2022/10/12 11:11:33;;;;;;;11.40;2.43;;;14.80;71.00;;;;;;5056633;28;20117;-70
2022/10/12 11:14:06;;;;;;;7.30;1.80;;;14.80;70.30;;;;;;5059682;28;20274;-70
2022/10/12 11:16:54;;;;;;;10.10;2.30;;;14.80;70.20;;;;;;5055650;28;20317;-71
2022/10/12 11:19:34;;;;;;;9.67;2.67;;;14.90;69.90;;;;;;5067056;28;20792;-71
2022/10/12 11:22:07;;;;;;;11.17;2.47;;;14.90;70.70;;;;;;5051831;28;20266;-71
2022/10/12 11:24:39;;;;;;;10.20;2.77;;;15.00;70.70;;;;;;5057038;28;20283;-72
2022/10/12 11:27:23;;;;;;;11.40;2.40;;;15.00;70.20;;;;;;5058685;28;20335;-71
2022/10/12 11:29:57;;;;;;;11.83;2.47;;;15.10;70.20;;;;;;5068829;28;20270;-71
2022/10/12 11:32:40;;;;;;;9.40;2.50;;;15.10;70.30;;;;;;5055345;28;20655;-71
2022/10/12 11:35:13;;;;;;;9.20;2.77;;;15.20;69.80;;;;;;5064810;28;20271;-71
2022/10/12 11:37:43;;;;;;;9.80;1.93;;;15.20;69.20;;;;;;5060220;28;20363;-71
2022/10/12 11:40:22;;;;;;;10.50;2.40;;;15.30;69.10;;;;;;5057353;28;20672;-71
2022/10/12 11:42:49;;;;;;;9.03;2.40;;;15.30;68.60;;;;;;5063216;28;20294;-71
2022/10/12 11:45:18;;;;;;;10.53;3.00;;;15.40;68.20;;;;;;5040416;28;20298;-70
2022/10/12 11:47:46;;;;;;;10.57;3.03;;;15.40;68.30;;;;;;5057545;28;20285;-70
2022/10/12 11:50:27;;;;;;;8.73;2.93;;;15.40;68.40;;;;;;5064323;28;20650;-71
2022/10/12 11:52:55;;;;;;;10.27;3.20;;;15.40;68.70;;;;;;5056628;28;20813;-71
2022/10/12 11:55:39;;;;;;;9.13;2.40;;;15.40;69.10;;;;;;5040965;28;20506;-71
2022/10/12 11:58:20;;;;;;;7.60;2.13;;;15.40;68.60;;;;;;5084588;28;20277;-71
2022/10/12 12:01:16;;;;;;;11.57;2.93;;;15.60;68.50;;;;;;5056766;28;20386;-70
2022/10/12 12:03:42;;;;;;;8.10;1.40;;;15.60;65.80;;;;;;5067798;28;20714;-71
2022/10/12 12:06:29;;;;;;;10.17;1.90;;;15.50;66.30;;;;;;5067319;28;20293;-71
2022/10/12 12:09:21;;;;;;;12.97;2.40;;;15.50;63.50;;;;;;5083577;28;20491;-71
2022/10/12 12:11:47;;;;;;;7.93;2.00;;;15.40;65.00;;;;;;5056245;28;20649;-71
2022/10/12 12:14:25;;;;;;;12.43;3.27;;;15.50;66.20;;;;;;5048319;28;20275;-71
2022/10/12 12:17:28;;;;;;;10.97;1.90;;;15.50;65.00;;;;;;5056577;28;20044;-70
2022/10/12 12:19:59;;;;;;;8.90;1.97;;;15.40;63.90;;;;;;4959106;28;20352;-70
2022/10/12 12:22:32;;;;;;;8.03;2.17;;;15.40;64.60;;;;;;5035906;28;20386;-70
2022/10/12 12:25:04;;;;;;;5.47;1.30;;;15.40;65.20;;;;;;5060193;28;20282;-70
2022/10/12 12:27:40;;;;;;;8.43;2.07;;;15.50;65.40;;;;;;5053876;28;20639;-71
2022/10/12 12:30:21;;;;;;;6.67;1.73;;;15.60;64.20;;;;;;5044948;28;20476;-71
2022/10/12 12:32:53;;;;;;;7.50;2.40;;;15.60;64.30;;;;;;5050334;28;20299;-71
2022/10/12 12:35:55;;;;;;;11.00;2.27;;;15.60;64.50;;;;;;5055263;28;20310;-71
2022/10/12 12:38:32;;;;;;;8.80;2.97;;;15.70;64.60;;;;;;5036507;28;20279;-72
2022/10/12 12:41:00;;;;;;;9.87;3.30;;;15.70;64.20;;;;;;5061487;28;20283;-70
2022/10/12 12:43:28;;;;;;;12.73;3.20;;;15.70;65.00;;;;;;5057913;28;20367;-71
2022/10/12 12:46:07;;;;;;;9.60;3.63;;;15.70;63.90;;;;;;5064153;28;20271;-71
2022/10/12 12:48:39;;;;;;;;;;;15.70;64.20;;;;;;5046307;28;20271;-72
2022/10/12 12:51:07;;;;;;;8.97;2.43;;;15.60;63.60;;;;;;5050229;28;19921;-71
2022/10/12 12:53:37;;;;;;;11.37;2.10;;;15.70;64.50;;;;;;5058889;28;20282;-71
2022/10/12 12:56:04;;;;;;;7.27;2.50;;;15.60;62.50;;;;;;5068143;28;20317;-73
2022/10/12 12:58:50;;;;;;;10.37;2.10;;;15.50;62.80;;;;;;5037855;28;20272;-72
2022/10/12 13:01:37;;;;;;;10.33;2.13;;;15.50;63.50;;;;;;5067866;28;20872;-71
2022/10/12 13:04:24;;;;;;;9.37;1.90;;;15.50;63.90;;;;;;5058508;28;20414;-71
2022/10/12 13:07:27;;;;;;;9.23;2.47;;;15.60;63.20;;;;;;5063557;28;20283;-71
2022/10/12 13:10:24;;;;;;;13.03;2.53;;;15.50;62.90;;;;;;5053541;28;20361;-70
2022/10/12 13:13:05;;;;;;;12.40;2.97;;;15.50;62.20;;;;;;5075136;28;20370;-71